This is the latest recevied weather packets stored in our database for station/object F4AMY-13. If no packets are shown the sender has not sent any weather packets the latest 10 day(s).
| Time | Temp. | Humidity | Pressure | Rain* | Wind** | Luminosity | Snow |
|---|---|---|---|---|---|---|---|
| 1777120924 | 23.89° C | 56% | 1014.5 hPa | 0 mm | 209.66 m/s, ° | 469 W/m² | - |
| 1777120624 | 23.89° C | 55% | 1014.7 hPa | 0 mm | 210.11 m/s, ° | 470 W/m² | - |
| 1777120324 | 23.89° C | 57% | 1014.7 hPa | 0 mm | 207.43 m/s, ° | 464 W/m² | - |
| 1777120024 | 23.89° C | 59% | 1014.6 hPa | 0 mm | 205.19 m/s, ° | 459 W/m² | - |
| 1777119724 | 23.89° C | 57% | 1014.5 hPa | 0 mm | 207.43 m/s, ° | 464 W/m² | - |
| 1777119424 | 23.89° C | 58% | 1014.6 hPa | 0 mm | 206.98 m/s, ° | 463 W/m² | - |
| 1777119124 | 23.89° C | 53% | 1014.7 hPa | 0 mm | 207.87 m/s, ° | 465 W/m² | - |
| 1777118824 | 23.33° C | 55% | 1014.8 hPa | 0 mm | 209.21 m/s, ° | 468 W/m² | - |
| 1777118524 | 23.33° C | 55% | 1014.7 hPa | 0 mm | 211 m/s, ° | 472 W/m² | - |
| 1777118224 | 23.33° C | 60% | 1014.5 hPa | 0 mm | 205.64 m/s, ° | 460 W/m² | - |
| 1777117924 | 23.33° C | 60% | 1014.8 hPa | 0 mm | 205.64 m/s, ° | 460 W/m² | - |
| 1777117624 | 23.33° C | 57% | 1014.7 hPa | 0 mm | 203.4 m/s, ° | 455 W/m² | - |
| 1777117323 | 23.33° C | 56% | 1014.9 hPa | 0 mm | 202.96 m/s, ° | 454 W/m² | - |
| 1777117023 | 23.33° C | 58% | 1014.9 hPa | 0 mm | 202.06 m/s, ° | 452 W/m² | - |
| 1777116723 | 23.33° C | 56% | 1015.1 hPa | 0 mm | 201.17 m/s, ° | 450 W/m² | - |
| 1777116423 | 23.33° C | 53% | 1014.9 hPa | 0 mm | 201.17 m/s, ° | 450 W/m² | - |
| 1777116123 | 23.33° C | 54% | 1015.1 hPa | 0 mm | 201.17 m/s, ° | 450 W/m² | - |
| 1777115823 | 23.33° C | 52% | 1015.2 hPa | 0 mm | 200.72 m/s, ° | 449 W/m² | - |
| 1777115523 | 22.78° C | 53% | 1014.7 hPa | 0 mm | 198.49 m/s, ° | 444 W/m² | - |
| 1777115223 | 22.78° C | 54% | 1015.1 hPa | 0 mm | 196.25 m/s, ° | 439 W/m² | - |
| 1777114923 | 22.78° C | 52% | 1015 hPa | 0 mm | 194.91 m/s, ° | 436 W/m² | - |
| 1777114623 | 22.22° C | 54% | 1015.2 hPa | 0 mm | 190.89 m/s, ° | 427 W/m² | - |
| 1777114323 | 22.22° C | 52% | 1015.2 hPa | 0 mm | 189.1 m/s, ° | 423 W/m² | - |
| 1777114023 | 21.67° C | 47% | 1015.2 hPa | 0 mm | 87.17 m/s, ° | 195 W/m² | - |
| 1777113723 | 21.67° C | 44% | 1015.3 hPa | 0 mm | 183.29 m/s, ° | 410 W/m² | - |
* Rain latest hour (hover to see other rain measurements)
** Current wind speed in m/s (hover to see current wind gust speed)